sensor_id;sensor_type;location;lat;lon;timestamp;P1;durP1;ratioP1;P2;durP2;ratioP2
7205;SDS011;3644;53.480;10.004;2024-02-26T00:00:26;7.03;;;6.30;;
7205;SDS011;3644;53.480;10.004;2024-02-26T00:02:51;9.27;;;6.80;;
7205;SDS011;3644;53.480;10.004;2024-02-26T00:05:17;7.50;;;6.10;;
7205;SDS011;3644;53.480;10.004;2024-02-26T00:07:43;7.37;;;6.20;;
7205;SDS011;3644;53.480;10.004;2024-02-26T00:10:09;6.53;;;5.90;;
7205;SDS011;3644;53.480;10.004;2024-02-26T00:12:34;8.37;;;6.43;;
7205;SDS011;3644;53.480;10.004;2024-02-26T00:15:00;8.73;;;6.10;;
7205;SDS011;3644;53.480;10.004;2024-02-26T00:17:25;7.00;;;6.30;;
7205;SDS011;3644;53.480;10.004;2024-02-26T00:19:51;7.37;;;6.53;;
7205;SDS011;3644;53.480;10.004;2024-02-26T00:22:16;8.13;;;6.40;;
7205;SDS011;3644;53.480;10.004;2024-02-26T00:24:42;7.00;;;6.30;;
7205;SDS011;3644;53.480;10.004;2024-02-26T00:27:07;8.57;;;7.20;;
7205;SDS011;3644;53.480;10.004;2024-02-26T00:29:33;9.60;;;6.53;;
7205;SDS011;3644;53.480;10.004;2024-02-26T00:31:58;6.70;;;6.00;;
7205;SDS011;3644;53.480;10.004;2024-02-26T00:34:24;8.40;;;7.20;;
7205;SDS011;3644;53.480;10.004;2024-02-26T00:36:49;9.83;;;6.97;;
7205;SDS011;3644;53.480;10.004;2024-02-26T00:39:15;7.83;;;6.97;;
7205;SDS011;3644;53.480;10.004;2024-02-26T00:41:40;8.67;;;7.60;;
7205;SDS011;3644;53.480;10.004;2024-02-26T00:44:06;7.50;;;6.00;;
7205;SDS011;3644;53.480;10.004;2024-02-26T00:46:32;8.37;;;6.87;;
7205;SDS011;3644;53.480;10.004;2024-02-26T00:48:57;9.00;;;6.47;;
7205;SDS011;3644;53.480;10.004;2024-02-26T00:51:23;7.20;;;6.50;;
7205;SDS011;3644;53.480;10.004;2024-02-26T00:53:48;10.37;;;7.77;;
7205;SDS011;3644;53.480;10.004;2024-02-26T00:56:14;9.90;;;8.00;;
7205;SDS011;3644;53.480;10.004;2024-02-26T00:58:40;7.30;;;6.50;;
7205;SDS011;3644;53.480;10.004;2024-02-26T01:01:05;8.00;;;6.17;;
7205;SDS011;3644;53.480;10.004;2024-02-26T01:03:31;9.60;;;7.77;;
7205;SDS011;3644;53.480;10.004;2024-02-26T01:05:56;9.73;;;7.30;;
7205;SDS011;3644;53.480;10.004;2024-02-26T01:08:21;8.97;;;6.63;;
7205;SDS011;3644;53.480;10.004;2024-02-26T01:10:47;9.20;;;7.10;;
7205;SDS011;3644;53.480;10.004;2024-02-26T01:13:12;11.57;;;7.83;;
7205;SDS011;3644;53.480;10.004;2024-02-26T01:15:38;9.33;;;7.00;;
7205;SDS011;3644;53.480;10.004;2024-02-26T01:18:04;10.80;;;7.37;;
7205;SDS011;3644;53.480;10.004;2024-02-26T01:20:29;9.87;;;6.87;;
7205;SDS011;3644;53.480;10.004;2024-02-26T01:22:55;11.87;;;8.07;;
7205;SDS011;3644;53.480;10.004;2024-02-26T01:25:20;18.83;;;7.93;;
7205;SDS011;3644;53.480;10.004;2024-02-26T01:27:46;9.80;;;7.63;;
7205;SDS011;3644;53.480;10.004;2024-02-26T01:30:12;16.70;;;9.67;;
7205;SDS011;3644;53.480;10.004;2024-02-26T01:32:37;60.00;;;11.33;;
7205;SDS011;3644;53.480;10.004;2024-02-26T01:35:03;33.07;;;11.60;;
7205;SDS011;3644;53.480;10.004;2024-02-26T01:37:30;27.13;;;9.87;;
7205;SDS011;3644;53.480;10.004;2024-02-26T01:39:55;33.93;;;10.00;;
7205;SDS011;3644;53.480;10.004;2024-02-26T01:42:21;37.97;;;10.40;;
7205;SDS011;3644;53.480;10.004;2024-02-26T01:44:46;57.60;;;9.93;;
7205;SDS011;3644;53.480;10.004;2024-02-26T01:47:12;17.80;;;9.37;;
7205;SDS011;3644;53.480;10.004;2024-02-26T01:49:38;15.17;;;9.40;;
7205;SDS011;3644;53.480;10.004;2024-02-26T01:52:05;14.30;;;10.20;;
7205;SDS011;3644;53.480;10.004;2024-02-26T01:54:32;34.63;;;12.60;;
7205;SDS011;3644;53.480;10.004;2024-02-26T01:57:01;16.57;;;11.50;;
7205;SDS011;3644;53.480;10.004;2024-02-26T01:59:28;13.50;;;8.40;;
7205;SDS011;3644;53.480;10.004;2024-02-26T02:01:54;13.10;;;8.47;;
7205;SDS011;3644;53.480;10.004;2024-02-26T02:04:22;17.90;;;10.17;;
7205;SDS011;3644;53.480;10.004;2024-02-26T02:06:49;14.77;;;9.77;;
7205;SDS011;3644;53.480;10.004;2024-02-26T02:09:15;18.00;;;10.50;;
7205;SDS011;3644;53.480;10.004;2024-02-26T02:11:41;15.13;;;10.60;;
7205;SDS011;3644;53.480;10.004;2024-02-26T02:14:06;16.03;;;10.00;;
7205;SDS011;3644;53.480;10.004;2024-02-26T02:16:32;12.13;;;9.20;;
7205;SDS011;3644;53.480;10.004;2024-02-26T02:18:58;15.90;;;9.30;;
7205;SDS011;3644;53.480;10.004;2024-02-26T02:21:24;14.90;;;9.30;;
7205;SDS011;3644;53.480;10.004;2024-02-26T02:23:49;17.90;;;11.17;;
7205;SDS011;3644;53.480;10.004;2024-02-26T02:26:15;16.23;;;9.80;;
7205;SDS011;3644;53.480;10.004;2024-02-26T02:28:41;22.10;;;9.23;;
7205;SDS011;3644;53.480;10.004;2024-02-26T02:31:07;21.60;;;11.37;;
7205;SDS011;3644;53.480;10.004;2024-02-26T02:33:33;48.03;;;12.63;;
7205;SDS011;3644;53.480;10.004;2024-02-26T02:35:59;25.10;;;11.90;;
7205;SDS011;3644;53.480;10.004;2024-02-26T02:38:25;39.03;;;10.23;;
7205;SDS011;3644;53.480;10.004;2024-02-26T02:40:51;16.17;;;9.37;;
7205;SDS011;3644;53.480;10.004;2024-02-26T02:43:17;22.17;;;10.77;;
7205;SDS011;3644;53.480;10.004;2024-02-26T02:45:42;20.17;;;10.00;;
7205;SDS011;3644;53.480;10.004;2024-02-26T02:48:08;30.63;;;10.97;;
7205;SDS011;3644;53.480;10.004;2024-02-26T02:50:33;18.83;;;10.90;;
7205;SDS011;3644;53.480;10.004;2024-02-26T02:52:59;40.47;;;11.50;;
7205;SDS011;3644;53.480;10.004;2024-02-26T02:55:24;77.10;;;10.47;;
7205;SDS011;3644;53.480;10.004;2024-02-26T02:57:50;33.63;;;11.13;;
7205;SDS011;3644;53.480;10.004;2024-02-26T03:00:16;18.70;;;10.30;;
7205;SDS011;3644;53.480;10.004;2024-02-26T03:02:41;20.50;;;11.33;;
7205;SDS011;3644;53.480;10.004;2024-02-26T03:05:08;26.50;;;12.30;;
7205;SDS011;3644;53.480;10.004;2024-02-26T03:07:33;21.83;;;10.70;;
7205;SDS011;3644;53.480;10.004;2024-02-26T03:09:59;38.30;;;13.13;;
7205;SDS011;3644;53.480;10.004;2024-02-26T03:12:24;39.73;;;11.20;;
7205;SDS011;3644;53.480;10.004;2024-02-26T03:14:50;20.57;;;11.33;;
7205;SDS011;3644;53.480;10.004;2024-02-26T03:17:16;22.10;;;12.37;;
7205;SDS011;3644;53.480;10.004;2024-02-26T03:19:43;16.80;;;10.13;;
7205;SDS011;3644;53.480;10.004;2024-02-26T03:22:11;41.93;;;9.80;;
7205;SDS011;3644;53.480;10.004;2024-02-26T03:24:38;28.93;;;10.73;;
7205;SDS011;3644;53.480;10.004;2024-02-26T03:27:03;17.00;;;10.90;;
7205;SDS011;3644;53.480;10.004;2024-02-26T03:29:34;20.23;;;11.47;;
7205;SDS011;3644;53.480;10.004;2024-02-26T03:32:00;29.40;;;10.90;;
7205;SDS011;3644;53.480;10.004;2024-02-26T03:34:25;32.73;;;10.67;;
7205;SDS011;3644;53.480;10.004;2024-02-26T03:36:51;29.37;;;10.90;;
7205;SDS011;3644;53.480;10.004;2024-02-26T03:39:17;30.10;;;10.20;;
7205;SDS011;3644;53.480;10.004;2024-02-26T03:41:42;13.10;;;9.70;;
7205;SDS011;3644;53.480;10.004;2024-02-26T03:44:08;15.10;;;10.20;;
7205;SDS011;3644;53.480;10.004;2024-02-26T03:46:33;17.03;;;10.27;;
7205;SDS011;3644;53.480;10.004;2024-02-26T03:48:59;13.07;;;9.03;;
7205;SDS011;3644;53.480;10.004;2024-02-26T03:51:24;14.70;;;9.80;;
7205;SDS011;3644;53.480;10.004;2024-02-26T03:53:50;15.20;;;9.77;;
7205;SDS011;3644;53.480;10.004;2024-02-26T03:56:15;15.57;;;9.90;;
7205;SDS011;3644;53.480;10.004;2024-02-26T03:58:41;15.27;;;10.10;;
7205;SDS011;3644;53.480;10.004;2024-02-26T04:01:07;14.37;;;9.77;;
7205;SDS011;3644;53.480;10.004;2024-02-26T04:03:33;18.27;;;10.13;;
7205;SDS011;3644;53.480;10.004;2024-02-26T04:05:59;12.47;;;9.47;;
7205;SDS011;3644;53.480;10.004;2024-02-26T04:08:25;17.53;;;10.63;;
7205;SDS011;3644;53.480;10.004;2024-02-26T04:10:50;15.50;;;9.93;;
7205;SDS011;3644;53.480;10.004;2024-02-26T04:13:16;12.87;;;9.13;;
7205;SDS011;3644;53.480;10.004;2024-02-26T04:15:42;14.07;;;9.40;;
7205;SDS011;3644;53.480;10.004;2024-02-26T04:18:08;12.63;;;9.13;;
7205;SDS011;3644;53.480;10.004;2024-02-26T04:20:33;12.20;;;9.20;;
7205;SDS011;3644;53.480;10.004;2024-02-26T04:22:59;14.53;;;8.73;;
7205;SDS011;3644;53.480;10.004;2024-02-26T04:25:24;12.73;;;9.43;;
7205;SDS011;3644;53.480;10.004;2024-02-26T04:27:50;10.37;;;8.37;;
7205;SDS011;3644;53.480;10.004;2024-02-26T04:30:15;11.93;;;8.50;;
7205;SDS011;3644;53.480;10.004;2024-02-26T04:32:42;11.90;;;8.60;;
7205;SDS011;3644;53.480;10.004;2024-02-26T04:35:07;19.80;;;9.63;;
7205;SDS011;3644;53.480;10.004;2024-02-26T04:37:33;12.30;;;8.80;;
7205;SDS011;3644;53.480;10.004;2024-02-26T04:39:59;17.17;;;8.30;;
7205;SDS011;3644;53.480;10.004;2024-02-26T04:42:25;13.10;;;7.90;;
7205;SDS011;3644;53.480;10.004;2024-02-26T04:44:51;11.23;;;7.53;;
7205;SDS011;3644;53.480;10.004;2024-02-26T04:47:17;10.13;;;8.00;;
7205;SDS011;3644;53.480;10.004;2024-02-26T04:49:43;12.73;;;7.80;;
7205;SDS011;3644;53.480;10.004;2024-02-26T04:52:08;10.77;;;6.90;;
7205;SDS011;3644;53.480;10.004;2024-02-26T04:54:34;9.53;;;7.53;;
7205;SDS011;3644;53.480;10.004;2024-02-26T04:56:59;9.53;;;8.00;;
7205;SDS011;3644;53.480;10.004;2024-02-26T04:59:24;15.17;;;9.10;;
7205;SDS011;3644;53.480;10.004;2024-02-26T05:01:50;14.87;;;7.87;;
7205;SDS011;3644;53.480;10.004;2024-02-26T05:04:17;12.60;;;9.07;;
7205;SDS011;3644;53.480;10.004;2024-02-26T05:06:43;10.70;;;8.10;;
7205;SDS011;3644;53.480;10.004;2024-02-26T05:09:08;12.67;;;9.77;;
7205;SDS011;3644;53.480;10.004;2024-02-26T05:11:34;16.10;;;8.43;;
7205;SDS011;3644;53.480;10.004;2024-02-26T05:14:00;15.37;;;9.57;;
7205;SDS011;3644;53.480;10.004;2024-02-26T05:16:25;19.93;;;9.13;;
7205;SDS011;3644;53.480;10.004;2024-02-26T05:18:52;14.63;;;7.67;;
7205;SDS011;3644;53.480;10.004;2024-02-26T05:21:18;14.50;;;9.63;;
7205;SDS011;3644;53.480;10.004;2024-02-26T05:23:43;17.77;;;9.30;;
7205;SDS011;3644;53.480;10.004;2024-02-26T05:26:10;16.83;;;10.03;;
7205;SDS011;3644;53.480;10.004;2024-02-26T05:28:35;11.30;;;9.07;;
7205;SDS011;3644;53.480;10.004;2024-02-26T05:31:02;17.90;;;9.73;;
7205;SDS011;3644;53.480;10.004;2024-02-26T05:33:28;10.90;;;8.27;;
7205;SDS011;3644;53.480;10.004;2024-02-26T05:35:53;15.77;;;10.00;;
7205;SDS011;3644;53.480;10.004;2024-02-26T05:38:19;12.43;;;9.70;;
7205;SDS011;3644;53.480;10.004;2024-02-26T05:40:44;12.23;;;8.83;;
7205;SDS011;3644;53.480;10.004;2024-02-26T05:43:10;11.80;;;8.87;;
7205;SDS011;3644;53.480;10.004;2024-02-26T05:45:36;13.67;;;9.00;;
7205;SDS011;3644;53.480;10.004;2024-02-26T05:48:02;21.00;;;9.53;;
7205;SDS011;3644;53.480;10.004;2024-02-26T05:50:28;17.27;;;9.00;;
7205;SDS011;3644;53.480;10.004;2024-02-26T05:52:53;13.77;;;9.87;;
7205;SDS011;3644;53.480;10.004;2024-02-26T05:55:19;12.60;;;8.67;;
7205;SDS011;3644;53.480;10.004;2024-02-26T05:57:44;12.07;;;8.83;;
7205;SDS011;3644;53.480;10.004;2024-02-26T06:00:10;12.20;;;9.30;;
7205;SDS011;3644;53.480;10.004;2024-02-26T06:02:37;11.53;;;8.70;;
7205;SDS011;3644;53.480;10.004;2024-02-26T06:05:03;15.43;;;8.87;;
7205;SDS011;3644;53.480;10.004;2024-02-26T06:07:29;15.63;;;9.17;;
7205;SDS011;3644;53.480;10.004;2024-02-26T06:09:54;14.50;;;9.10;;
7205;SDS011;3644;53.480;10.004;2024-02-26T06:12:20;15.50;;;9.60;;
7205;SDS011;3644;53.480;10.004;2024-02-26T06:14:45;12.10;;;9.10;;
7205;SDS011;3644;53.480;10.004;2024-02-26T06:17:11;13.30;;;8.87;;
7205;SDS011;3644;53.480;10.004;2024-02-26T06:19:36;14.60;;;10.13;;
7205;SDS011;3644;53.480;10.004;2024-02-26T06:22:02;16.40;;;9.67;;
7205;SDS011;3644;53.480;10.004;2024-02-26T06:24:27;20.10;;;9.90;;
7205;SDS011;3644;53.480;10.004;2024-02-26T06:26:53;16.50;;;9.70;;
7205;SDS011;3644;53.480;10.004;2024-02-26T06:29:18;15.73;;;9.50;;
7205;SDS011;3644;53.480;10.004;2024-02-26T06:31:44;16.97;;;10.23;;
7205;SDS011;3644;53.480;10.004;2024-02-26T06:34:09;17.77;;;11.43;;
7205;SDS011;3644;53.480;10.004;2024-02-26T06:36:35;18.83;;;10.07;;
7205;SDS011;3644;53.480;10.004;2024-02-26T06:39:00;16.83;;;11.20;;
7205;SDS011;3644;53.480;10.004;2024-02-26T06:41:26;17.50;;;11.13;;
7205;SDS011;3644;53.480;10.004;2024-02-26T06:43:54;18.10;;;11.40;;
7205;SDS011;3644;53.480;10.004;2024-02-26T06:46:20;19.30;;;10.57;;
7205;SDS011;3644;53.480;10.004;2024-02-26T06:48:47;19.10;;;9.90;;
7205;SDS011;3644;53.480;10.004;2024-02-26T06:51:13;15.27;;;11.10;;
7205;SDS011;3644;53.480;10.004;2024-02-26T06:53:38;25.43;;;10.53;;
7205;SDS011;3644;53.480;10.004;2024-02-26T06:56:04;32.10;;;11.33;;
7205;SDS011;3644;53.480;10.004;2024-02-26T06:58:30;18.80;;;11.33;;
7205;SDS011;3644;53.480;10.004;2024-02-26T07:00:55;11.70;;;9.30;;
7205;SDS011;3644;53.480;10.004;2024-02-26T07:03:21;17.13;;;9.70;;
7205;SDS011;3644;53.480;10.004;2024-02-26T07:05:47;17.13;;;9.00;;
7205;SDS011;3644;53.480;10.004;2024-02-26T07:08:13;31.27;;;11.73;;
7205;SDS011;3644;53.480;10.004;2024-02-26T07:10:39;16.80;;;10.07;;
7205;SDS011;3644;53.480;10.004;2024-02-26T07:13:04;22.97;;;10.40;;
7205;SDS011;3644;53.480;10.004;2024-02-26T07:15:30;20.37;;;9.27;;
7205;SDS011;3644;53.480;10.004;2024-02-26T07:17:55;17.87;;;10.33;;
7205;SDS011;3644;53.480;10.004;2024-02-26T07:20:21;18.90;;;10.03;;
7205;SDS011;3644;53.480;10.004;2024-02-26T07:22:46;15.73;;;10.27;;
7205;SDS011;3644;53.480;10.004;2024-02-26T07:25:12;22.17;;;10.97;;
7205;SDS011;3644;53.480;10.004;2024-02-26T07:27:41;19.33;;;10.83;;
7205;SDS011;3644;53.480;10.004;2024-02-26T07:30:06;21.43;;;11.13;;
7205;SDS011;3644;53.480;10.004;2024-02-26T07:32:34;17.60;;;9.50;;
7205;SDS011;3644;53.480;10.004;2024-02-26T07:34:59;22.23;;;12.50;;
7205;SDS011;3644;53.480;10.004;2024-02-26T07:37:24;15.20;;;10.60;;
7205;SDS011;3644;53.480;10.004;2024-02-26T07:39:50;17.50;;;10.90;;
7205;SDS011;3644;53.480;10.004;2024-02-26T07:42:15;19.93;;;11.27;;
7205;SDS011;3644;53.480;10.004;2024-02-26T07:44:41;15.73;;;9.20;;
7205;SDS011;3644;53.480;10.004;2024-02-26T07:47:08;18.17;;;11.30;;
7205;SDS011;3644;53.480;10.004;2024-02-26T07:49:34;16.80;;;11.93;;
7205;SDS011;3644;53.480;10.004;2024-02-26T07:52:00;17.13;;;10.27;;
7205;SDS011;3644;53.480;10.004;2024-02-26T07:54:25;17.93;;;11.70;;
7205;SDS011;3644;53.480;10.004;2024-02-26T07:56:51;21.53;;;11.10;;
7205;SDS011;3644;53.480;10.004;2024-02-26T07:59:16;22.80;;;12.00;;
7205;SDS011;3644;53.480;10.004;2024-02-26T08:01:42;25.23;;;13.37;;
7205;SDS011;3644;53.480;10.004;2024-02-26T08:04:08;20.77;;;12.23;;
7205;SDS011;3644;53.480;10.004;2024-02-26T08:06:33;24.23;;;12.73;;
7205;SDS011;3644;53.480;10.004;2024-02-26T08:08:59;22.27;;;12.23;;
7205;SDS011;3644;53.480;10.004;2024-02-26T08:11:24;16.83;;;11.43;;
7205;SDS011;3644;53.480;10.004;2024-02-26T08:13:50;21.00;;;11.00;;
7205;SDS011;3644;53.480;10.004;2024-02-26T08:16:15;20.07;;;11.00;;
7205;SDS011;3644;53.480;10.004;2024-02-26T08:18:41;18.17;;;12.20;;
7205;SDS011;3644;53.480;10.004;2024-02-26T08:21:06;21.60;;;11.33;;
7205;SDS011;3644;53.480;10.004;2024-02-26T08:23:33;16.07;;;11.60;;
7205;SDS011;3644;53.480;10.004;2024-02-26T08:25:59;16.50;;;10.50;;
7205;SDS011;3644;53.480;10.004;2024-02-26T08:28:24;18.23;;;11.70;;
7205;SDS011;3644;53.480;10.004;2024-02-26T08:30:50;20.30;;;12.70;;
7205;SDS011;3644;53.480;10.004;2024-02-26T08:33:15;19.10;;;13.60;;
7205;SDS011;3644;53.480;10.004;2024-02-26T08:35:41;21.80;;;13.10;;
7205;SDS011;3644;53.480;10.004;2024-02-26T08:38:06;18.87;;;12.93;;
7205;SDS011;3644;53.480;10.004;2024-02-26T08:40:32;19.70;;;12.30;;
7205;SDS011;3644;53.480;10.004;2024-02-26T08:42:57;20.10;;;13.77;;
7205;SDS011;3644;53.480;10.004;2024-02-26T08:45:23;17.97;;;11.60;;
7205;SDS011;3644;53.480;10.004;2024-02-26T08:47:49;17.40;;;11.43;;
7205;SDS011;3644;53.480;10.004;2024-02-26T08:50:14;18.10;;;12.13;;
7205;SDS011;3644;53.480;10.004;2024-02-26T08:52:40;15.20;;;10.37;;
7205;SDS011;3644;53.480;10.004;2024-02-26T08:55:06;18.40;;;11.97;;
7205;SDS011;3644;53.480;10.004;2024-02-26T08:57:33;14.03;;;10.43;;
7205;SDS011;3644;53.480;10.004;2024-02-26T08:59:59;18.70;;;10.90;;
7205;SDS011;3644;53.480;10.004;2024-02-26T09:02:26;20.73;;;11.70;;
7205;SDS011;3644;53.480;10.004;2024-02-26T09:04:51;13.80;;;10.40;;
7205;SDS011;3644;53.480;10.004;2024-02-26T09:07:19;19.87;;;11.83;;
7205;SDS011;3644;53.480;10.004;2024-02-26T09:09:45;17.13;;;11.30;;
7205;SDS011;3644;53.480;10.004;2024-02-26T09:12:11;13.67;;;10.00;;
7205;SDS011;3644;53.480;10.004;2024-02-26T09:14:36;24.97;;;13.30;;
7205;SDS011;3644;53.480;10.004;2024-02-26T09:17:02;18.13;;;11.40;;
7205;SDS011;3644;53.480;10.004;2024-02-26T09:19:28;21.33;;;13.10;;
7205;SDS011;3644;53.480;10.004;2024-02-26T09:21:54;18.03;;;10.70;;
7205;SDS011;3644;53.480;10.004;2024-02-26T09:24:22;23.03;;;13.23;;
7205;SDS011;3644;53.480;10.004;2024-02-26T09:26:49;21.30;;;12.90;;
7205;SDS011;3644;53.480;10.004;2024-02-26T09:29:15;25.47;;;11.47;;
7205;SDS011;3644;53.480;10.004;2024-02-26T09:31:40;22.30;;;9.90;;
7205;SDS011;3644;53.480;10.004;2024-02-26T09:34:06;15.97;;;11.30;;
7205;SDS011;3644;53.480;10.004;2024-02-26T09:36:32;14.90;;;8.97;;
7205;SDS011;3644;53.480;10.004;2024-02-26T09:38:58;17.80;;;10.50;;
7205;SDS011;3644;53.480;10.004;2024-02-26T09:41:24;13.40;;;10.03;;
7205;SDS011;3644;53.480;10.004;2024-02-26T09:43:58;11.97;;;9.23;;
7205;SDS011;3644;53.480;10.004;2024-02-26T09:46:27;18.50;;;10.87;;
7205;SDS011;3644;53.480;10.004;2024-02-26T09:48:53;11.40;;;8.67;;
7205;SDS011;3644;53.480;10.004;2024-02-26T09:51:19;15.50;;;10.23;;
7205;SDS011;3644;53.480;10.004;2024-02-26T09:53:48;14.97;;;9.17;;
7205;SDS011;3644;53.480;10.004;2024-02-26T09:56:17;11.77;;;8.97;;
7205;SDS011;3644;53.480;10.004;2024-02-26T09:58:42;18.93;;;9.50;;
7205;SDS011;3644;53.480;10.004;2024-02-26T10:01:13;13.37;;;10.10;;
7205;SDS011;3644;53.480;10.004;2024-02-26T10:03:41;12.40;;;8.60;;
7205;SDS011;3644;53.480;10.004;2024-02-26T10:06:09;11.17;;;9.00;;
7205;SDS011;3644;53.480;10.004;2024-02-26T10:08:34;10.20;;;9.17;;
7205;SDS011;3644;53.480;10.004;2024-02-26T10:11:01;20.13;;;10.40;;
7205;SDS011;3644;53.480;10.004;2024-02-26T10:13:28;20.43;;;8.93;;
7205;SDS011;3644;53.480;10.004;2024-02-26T10:15:53;13.73;;;10.47;;
7205;SDS011;3644;53.480;10.004;2024-02-26T10:18:19;11.20;;;8.83;;
7205;SDS011;3644;53.480;10.004;2024-02-26T10:21:00;9.97;;;7.70;;
7205;SDS011;3644;53.480;10.004;2024-02-26T10:23:29;15.77;;;9.17;;
7205;SDS011;3644;53.480;10.004;2024-02-26T10:25:54;13.07;;;10.13;;
7205;SDS011;3644;53.480;10.004;2024-02-26T10:28:21;10.60;;;8.87;;
7205;SDS011;3644;53.480;10.004;2024-02-26T10:30:47;14.60;;;9.43;;
7205;SDS011;3644;53.480;10.004;2024-02-26T10:33:13;15.63;;;8.97;;
7205;SDS011;3644;53.480;10.004;2024-02-26T10:35:39;12.00;;;8.73;;
7205;SDS011;3644;53.480;10.004;2024-02-26T10:38:10;12.77;;;9.00;;
7205;SDS011;3644;53.480;10.004;2024-02-26T10:40:35;9.87;;;8.33;;
7205;SDS011;3644;53.480;10.004;2024-02-26T10:43:01;14.20;;;9.47;;
7205;SDS011;3644;53.480;10.004;2024-02-26T10:45:27;16.33;;;9.40;;
7205;SDS011;3644;53.480;10.004;2024-02-26T10:47:53;12.70;;;9.30;;
7205;SDS011;3644;53.480;10.004;2024-02-26T10:50:18;10.50;;;8.50;;
7205;SDS011;3644;53.480;10.004;2024-02-26T10:52:45;15.63;;;8.83;;
7205;SDS011;3644;53.480;10.004;2024-02-26T10:55:13;14.17;;;9.83;;
7205;SDS011;3644;53.480;10.004;2024-02-26T10:57:44;13.83;;;8.97;;
7205;SDS011;3644;53.480;10.004;2024-02-26T11:00:13;11.27;;;8.20;;
7205;SDS011;3644;53.480;10.004;2024-02-26T11:02:40;17.17;;;9.50;;
7205;SDS011;3644;53.480;10.004;2024-02-26T11:05:06;11.30;;;8.07;;
7205;SDS011;3644;53.480;10.004;2024-02-26T11:07:35;13.00;;;8.40;;
7205;SDS011;3644;53.480;10.004;2024-02-26T11:10:02;13.00;;;8.97;;
7205;SDS011;3644;53.480;10.004;2024-02-26T11:12:30;17.50;;;9.13;;
7205;SDS011;3644;53.480;10.004;2024-02-26T11:14:57;16.17;;;8.73;;
7205;SDS011;3644;53.480;10.004;2024-02-26T11:17:25;11.80;;;7.80;;
7205;SDS011;3644;53.480;10.004;2024-02-26T11:19:55;14.03;;;9.37;;
7205;SDS011;3644;53.480;10.004;2024-02-26T11:22:22;18.17;;;9.83;;
7205;SDS011;3644;53.480;10.004;2024-02-26T11:24:52;15.53;;;10.57;;
7205;SDS011;3644;53.480;10.004;2024-02-26T11:27:27;21.07;;;10.10;;
7205;SDS011;3644;53.480;10.004;2024-02-26T11:29:55;14.33;;;9.83;;
7205;SDS011;3644;53.480;10.004;2024-02-26T11:32:24;14.47;;;9.10;;
7205;SDS011;3644;53.480;10.004;2024-02-26T11:34:51;15.30;;;9.30;;
7205;SDS011;3644;53.480;10.004;2024-02-26T11:37:18;14.97;;;9.00;;
7205;SDS011;3644;53.480;10.004;2024-02-26T11:39:45;20.90;;;11.47;;
7205;SDS011;3644;53.480;10.004;2024-02-26T11:42:13;17.63;;;10.77;;
7205;SDS011;3644;53.480;10.004;2024-02-26T11:44:40;17.73;;;11.00;;
7205;SDS011;3644;53.480;10.004;2024-02-26T11:47:12;18.20;;;11.27;;
7205;SDS011;3644;53.480;10.004;2024-02-26T11:49:44;20.30;;;13.03;;
7205;SDS011;3644;53.480;10.004;2024-02-26T11:52:10;23.10;;;11.60;;
7205;SDS011;3644;53.480;10.004;2024-02-26T11:54:56;21.37;;;11.83;;
7205;SDS011;3644;53.480;10.004;2024-02-26T11:59:54;20.77;;;11.93;;
7205;SDS011;3644;53.480;10.004;2024-02-26T12:05:17;28.83;;;14.10;;
7205;SDS011;3644;53.480;10.004;2024-02-26T12:08:03;23.53;;;13.30;;
7205;SDS011;3644;53.480;10.004;2024-02-26T12:10:32;20.47;;;12.90;;
7205;SDS011;3644;53.480;10.004;2024-02-26T12:15:38;18.40;;;11.90;;
7205;SDS011;3644;53.480;10.004;2024-02-26T12:18:06;19.43;;;11.20;;
7205;SDS011;3644;53.480;10.004;2024-02-26T12:20:34;16.77;;;11.53;;
7205;SDS011;3644;53.480;10.004;2024-02-26T12:23:00;18.97;;;11.77;;
7205;SDS011;3644;53.480;10.004;2024-02-26T12:25:28;23.17;;;12.37;;
7205;SDS011;3644;53.480;10.004;2024-02-26T12:27:55;18.57;;;11.63;;
7205;SDS011;3644;53.480;10.004;2024-02-26T12:30:21;22.43;;;12.30;;
7205;SDS011;3644;53.480;10.004;2024-02-26T12:32:47;17.23;;;10.90;;
7205;SDS011;3644;53.480;10.004;2024-02-26T12:35:14;18.67;;;12.00;;
7205;SDS011;3644;53.480;10.004;2024-02-26T12:37:41;17.17;;;11.70;;
7205;SDS011;3644;53.480;10.004;2024-02-26T12:40:10;15.67;;;10.90;;
7205;SDS011;3644;53.480;10.004;2024-02-26T12:42:36;23.37;;;12.37;;
7205;SDS011;3644;53.480;10.004;2024-02-26T12:45:06;16.00;;;11.00;;
7205;SDS011;3644;53.480;10.004;2024-02-26T12:47:40;14.30;;;10.30;;
7205;SDS011;3644;53.480;10.004;2024-02-26T12:50:11;14.53;;;8.90;;
7205;SDS011;3644;53.480;10.004;2024-02-26T12:52:42;15.20;;;8.83;;
7205;SDS011;3644;53.480;10.004;2024-02-26T12:55:10;15.20;;;9.90;;
7205;SDS011;3644;53.480;10.004;2024-02-26T12:57:39;13.80;;;10.43;;
7205;SDS011;3644;53.480;10.004;2024-02-26T13:00:08;13.23;;;9.23;;
7205;SDS011;3644;53.480;10.004;2024-02-26T13:02:38;12.93;;;9.50;;
7205;SDS011;3644;53.480;10.004;2024-02-26T13:05:05;15.50;;;11.10;;
7205;SDS011;3644;53.480;10.004;2024-02-26T13:07:31;14.77;;;9.27;;
7205;SDS011;3644;53.480;10.004;2024-02-26T13:09:58;14.97;;;10.00;;
7205;SDS011;3644;53.480;10.004;2024-02-26T13:12:23;14.93;;;8.90;;
7205;SDS011;3644;53.480;10.004;2024-02-26T13:15:05;12.83;;;8.90;;
7205;SDS011;3644;53.480;10.004;2024-02-26T13:17:33;14.70;;;9.43;;
7205;SDS011;3644;53.480;10.004;2024-02-26T13:19:59;15.30;;;9.17;;
7205;SDS011;3644;53.480;10.004;2024-02-26T13:22:24;14.90;;;8.53;;
7205;SDS011;3644;53.480;10.004;2024-02-26T13:24:54;20.13;;;10.20;;
7205;SDS011;3644;53.480;10.004;2024-02-26T13:27:21;21.47;;;11.03;;
7205;SDS011;3644;53.480;10.004;2024-02-26T13:30:09;12.60;;;9.17;;
7205;SDS011;3644;53.480;10.004;2024-02-26T13:32:37;15.77;;;10.33;;
7205;SDS011;3644;53.480;10.004;2024-02-26T13:35:12;17.50;;;10.90;;
7205;SDS011;3644;53.480;10.004;2024-02-26T13:37:39;16.27;;;10.40;;
7205;SDS011;3644;53.480;10.004;2024-02-26T13:40:11;14.30;;;10.23;;
7205;SDS011;3644;53.480;10.004;2024-02-26T13:42:37;13.60;;;8.13;;
7205;SDS011;3644;53.480;10.004;2024-02-26T13:45:03;14.83;;;9.43;;
7205;SDS011;3644;53.480;10.004;2024-02-26T13:47:33;15.17;;;9.73;;
7205;SDS011;3644;53.480;10.004;2024-02-26T13:49:59;13.93;;;9.53;;
7205;SDS011;3644;53.480;10.004;2024-02-26T13:52:25;16.57;;;10.00;;
7205;SDS011;3644;53.480;10.004;2024-02-26T13:54:51;16.37;;;10.47;;
7205;SDS011;3644;53.480;10.004;2024-02-26T13:57:17;20.70;;;9.37;;
7205;SDS011;3644;53.480;10.004;2024-02-26T13:59:44;15.80;;;10.37;;
7205;SDS011;3644;53.480;10.004;2024-02-26T14:02:09;15.60;;;9.50;;
7205;SDS011;3644;53.480;10.004;2024-02-26T14:04:36;14.37;;;9.33;;
7205;SDS011;3644;53.480;10.004;2024-02-26T14:07:02;14.50;;;9.57;;
7205;SDS011;3644;53.480;10.004;2024-02-26T14:09:28;12.40;;;8.50;;
7205;SDS011;3644;53.480;10.004;2024-02-26T14:11:54;17.07;;;8.90;;
7205;SDS011;3644;53.480;10.004;2024-02-26T14:14:19;14.93;;;10.20;;
7205;SDS011;3644;53.480;10.004;2024-02-26T14:16:45;16.50;;;9.60;;
7205;SDS011;3644;53.480;10.004;2024-02-26T14:19:10;17.53;;;9.70;;
7205;SDS011;3644;53.480;10.004;2024-02-26T14:21:36;18.23;;;9.03;;
7205;SDS011;3644;53.480;10.004;2024-02-26T14:24:02;15.93;;;11.17;;
7205;SDS011;3644;53.480;10.004;2024-02-26T14:26:28;12.17;;;8.93;;
7205;SDS011;3644;53.480;10.004;2024-02-26T14:28:54;21.50;;;9.73;;
7205;SDS011;3644;53.480;10.004;2024-02-26T14:31:19;15.23;;;10.23;;
7205;SDS011;3644;53.480;10.004;2024-02-26T14:33:45;16.90;;;10.00;;
7205;SDS011;3644;53.480;10.004;2024-02-26T14:36:11;12.90;;;8.60;;
7205;SDS011;3644;53.480;10.004;2024-02-26T14:38:37;16.43;;;10.10;;
7205;SDS011;3644;53.480;10.004;2024-02-26T14:41:04;14.23;;;9.70;;
7205;SDS011;3644;53.480;10.004;2024-02-26T14:43:30;14.40;;;9.00;;
7205;SDS011;3644;53.480;10.004;2024-02-26T14:45:57;19.83;;;10.23;;